createdAt,value
2022-12-04T00:01:12.007Z,76.25
2022-12-04T00:03:38.919Z,75.83
2022-12-04T00:06:17.278Z,76.06
2022-12-04T00:08:44.331Z,76.22
2022-12-04T00:11:12.406Z,76.23
2022-12-04T00:13:39.603Z,76.35
2022-12-04T00:16:12.675Z,76.45
2022-12-04T00:18:39.348Z,76.53
2022-12-04T00:21:07.701Z,76.52
2022-12-04T00:23:35.870Z,76.45
2022-12-04T00:26:24.964Z,76.45
2022-12-04T00:28:51.772Z,76.35
2022-12-04T00:31:21.104Z,76.22
2022-12-04T00:33:47.684Z,76.36
2022-12-04T00:36:16.821Z,76.19
2022-12-04T00:38:43.938Z,76.35
2022-12-04T00:41:11.898Z,76.60
2022-12-04T00:43:38.020Z,76.76
2022-12-04T00:46:04.356Z,76.48
2022-12-04T00:48:30.577Z,76.45
2022-12-04T00:51:03.416Z,76.35
2022-12-04T00:53:29.694Z,76.43
2022-12-04T00:55:56.233Z,76.15
2022-12-04T00:58:22.348Z,76.27
2022-12-04T01:00:48.383Z,76.50
2022-12-04T01:03:14.814Z,76.39
2022-12-04T01:05:44.116Z,76.51
2022-12-04T01:08:11.817Z,76.34
2022-12-04T01:10:39.593Z,76.17
2022-12-04T01:13:05.809Z,76.35
2022-12-04T01:15:32.192Z,76.59
2022-12-04T01:17:58.321Z,76.55
2022-12-04T01:20:24.494Z,76.67
2022-12-04T01:22:50.486Z,76.40
2022-12-04T01:25:16.538Z,76.49
2022-12-04T01:27:42.531Z,76.60
2022-12-04T01:30:08.885Z,76.83
2022-12-04T01:32:34.816Z,77.03
2022-12-04T01:35:00.801Z,76.84
2022-12-04T01:37:30.099Z,77.06
2022-12-04T01:39:56.448Z,76.89
2022-12-04T01:42:22.901Z,76.87
2022-12-04T01:45:26.335Z,77.12
2022-12-04T01:48:01.717Z,77.17
2022-12-04T01:50:28.803Z,77.32
2022-12-04T01:52:55.102Z,77.05
2022-12-04T01:55:21.186Z,76.98
2022-12-04T01:57:47.516Z,76.83
2022-12-04T02:00:15.421Z,76.83
2022-12-04T02:02:44.766Z,76.44
2022-12-04T02:05:14.570Z,76.51
2022-12-04T02:07:42.756Z,76.95
2022-12-04T02:10:10.986Z,77.10
2022-12-04T02:12:50.723Z,77.27
2022-12-04T02:15:33.884Z,77.42
2022-12-04T02:18:06.016Z,77.25
2022-12-04T02:20:56.861Z,77.36
2022-12-04T02:23:40.448Z,77.52
2022-12-04T02:26:32.759Z,77.79
2022-12-04T02:29:20.327Z,77.89
2022-12-04T02:32:01.711Z,77.56
2022-12-04T02:34:58.136Z,77.13
2022-12-04T02:37:32.495Z,77.30
2022-12-04T02:40:08.889Z,77.35
2022-12-04T02:42:40.479Z,77.51
2022-12-04T02:45:11.431Z,77.35
2022-12-04T02:47:41.604Z,77.55
2022-12-04T02:50:15.309Z,77.53
2022-12-04T02:52:52.606Z,77.22
2022-12-04T02:55:31.838Z,77.29
2022-12-04T02:58:05.120Z,77.39
2022-12-04T03:00:32.418Z,77.33
2022-12-04T03:03:08.361Z,77.54
2022-12-04T03:05:46.031Z,77.33
2022-12-04T03:08:19.640Z,77.25
2022-12-04T03:10:50.423Z,77.09
2022-12-04T03:13:23.533Z,76.94
2022-12-04T03:16:01.399Z,77.01
2022-12-04T03:18:41.398Z,77.15
2022-12-04T03:21:16.239Z,77.40
2022-12-04T03:23:48.244Z,77.38
2022-12-04T03:26:23.266Z,77.46
2022-12-04T03:29:14.784Z,77.34
2022-12-04T03:31:49.363Z,77.16
2022-12-04T03:34:26.175Z,76.91
2022-12-04T03:36:58.251Z,77.12
2022-12-04T03:40:04.348Z,76.89
2022-12-04T03:42:46.071Z,76.92
2022-12-04T03:45:45.338Z,77.02
2022-12-04T03:48:23.131Z,77.06
2022-12-04T03:51:01.727Z,77.26
2022-12-04T03:53:37.623Z,77.07
2022-12-04T03:56:13.173Z,77.03
2022-12-04T03:58:45.651Z,77.00
2022-12-04T04:01:14.513Z,76.94
2022-12-04T04:03:48.614Z,76.80
2022-12-04T04:06:23.489Z,76.70
2022-12-04T04:08:55.092Z,76.55
2022-12-04T04:11:33.208Z,76.59
2022-12-04T04:14:25.495Z,76.93
2022-12-04T04:17:16.991Z,77.15
2022-12-04T04:20:05.767Z,77.21
2022-12-04T04:22:55.983Z,77.36
2022-12-04T04:25:25.133Z,76.98
2022-12-04T04:27:55.892Z,76.90
2022-12-04T04:30:22.520Z,76.65
2022-12-04T04:32:58.018Z,76.57
2022-12-04T04:35:41.323Z,76.42
2022-12-04T04:38:26.123Z,76.75
2022-12-04T04:41:01.205Z,76.58
2022-12-04T04:43:43.550Z,76.71
2022-12-04T04:46:24.561Z,76.68
2022-12-04T04:48:53.893Z,76.69
2022-12-04T04:51:20.383Z,76.71
2022-12-04T04:53:50.045Z,76.89
2022-12-04T04:56:16.653Z,76.98
2022-12-04T04:58:43.032Z,76.67
2022-12-04T05:01:13.466Z,76.63
2022-12-04T05:03:41.201Z,76.54
2022-12-04T05:06:07.519Z,76.55
2022-12-04T05:08:34.545Z,76.64
2022-12-04T05:11:00.625Z,76.64
2022-12-04T05:13:28.280Z,76.30
2022-12-04T05:15:58.727Z,76.34
2022-12-04T05:18:24.911Z,76.27
2022-12-04T05:20:50.926Z,76.12
2022-12-04T05:23:17.009Z,76.11
2022-12-04T05:25:42.991Z,75.82
2022-12-04T05:28:08.951Z,75.37
2022-12-04T05:30:34.971Z,75.33
2022-12-04T05:33:01.000Z,76.20
2022-12-04T05:35:27.022Z,76.07
2022-12-04T05:37:53.051Z,76.28
2022-12-04T05:40:19.173Z,76.07
2022-12-04T05:42:45.146Z,76.24
2022-12-04T05:45:11.515Z,76.51
2022-12-04T05:47:42.244Z,76.60
2022-12-04T05:50:10.229Z,76.49
2022-12-04T05:52:36.311Z,76.13
2022-12-04T05:55:02.379Z,75.98
2022-12-04T05:57:30.026Z,75.89
2022-12-04T05:59:56.358Z,75.84
2022-12-04T06:02:22.755Z,76.13
2022-12-04T06:04:49.015Z,76.42
2022-12-04T06:07:14.991Z,76.26
2022-12-04T06:09:40.919Z,76.14
2022-12-04T06:12:07.099Z,76.08
2022-12-04T06:14:39.147Z,75.84
2022-12-04T06:17:05.603Z,75.99
2022-12-04T06:19:31.711Z,75.73
2022-12-04T06:21:57.694Z,75.63
2022-12-04T06:24:24.649Z,75.65
2022-12-04T06:29:42.203Z,75.70
2022-12-04T06:32:08.309Z,75.81
2022-12-04T06:34:35.111Z,75.79
2022-12-04T06:37:01.107Z,75.71
2022-12-04T06:39:27.099Z,75.60
2022-12-04T06:41:53.288Z,75.63
2022-12-04T06:44:19.315Z,75.89
2022-12-04T06:46:47.359Z,75.98
2022-12-04T06:49:14.054Z,75.57
2022-12-04T06:51:40.255Z,75.81
2022-12-04T06:54:06.248Z,76.13
2022-12-04T06:56:33.365Z,76.09
2022-12-04T06:59:01.231Z,75.90
2022-12-04T07:01:30.674Z,75.64
2022-12-04T07:03:57.904Z,75.71
2022-12-04T07:06:29.630Z,75.83
2022-12-04T07:09:09.500Z,75.57
2022-12-04T07:11:35.909Z,75.74
2022-12-04T07:14:02.669Z,75.81
2022-12-04T07:16:29.993Z,75.99
2022-12-04T07:18:57.902Z,76.12
2022-12-04T07:21:29.159Z,75.94
2022-12-04T07:23:58.347Z,76.01
2022-12-04T07:26:25.975Z,76.12
2022-12-04T07:28:53.589Z,75.80
2022-12-04T07:31:21.960Z,75.73
2022-12-04T07:33:48.697Z,75.77
2022-12-04T07:36:17.168Z,75.69
2022-12-04T07:38:43.478Z,75.60
2022-12-04T07:41:11.676Z,75.88
2022-12-04T07:43:38.720Z,75.70
2022-12-04T07:46:08.500Z,75.42
2022-12-04T07:48:34.796Z,75.08
2022-12-04T07:51:08.310Z,74.94
2022-12-04T07:53:35.513Z,75.27
2022-12-04T07:56:02.800Z,75.30
2022-12-04T07:58:28.796Z,75.57
2022-12-04T08:00:54.931Z,75.12
2022-12-04T08:03:20.988Z,74.90
2022-12-04T08:05:47.046Z,75.11
2022-12-04T08:08:13.073Z,75.19
2022-12-04T08:10:40.405Z,74.95
2022-12-04T08:13:06.589Z,74.78
2022-12-04T08:15:34.248Z,74.71
2022-12-04T08:18:00.368Z,74.80
2022-12-04T08:20:26.690Z,74.84
2022-12-04T08:22:52.666Z,74.53
2022-12-04T08:25:18.648Z,74.53
2022-12-04T08:27:47.628Z,74.61
2022-12-04T08:30:13.889Z,75.03
2022-12-04T08:32:39.860Z,74.86
2022-12-04T08:35:06.039Z,74.67
2022-12-04T08:37:32.052Z,74.94
2022-12-04T08:39:58.450Z,75.15
2022-12-04T08:42:24.609Z,75.02
2022-12-04T08:44:50.626Z,74.84
2022-12-04T08:47:16.653Z,74.86
2022-12-04T08:49:42.707Z,75.00
2022-12-04T08:52:08.652Z,74.83
2022-12-04T08:54:36.325Z,74.65
2022-12-04T08:57:03.183Z,74.53
2022-12-04T08:59:29.281Z,75.03
2022-12-04T09:01:55.329Z,75.28
2022-12-04T09:04:21.500Z,74.80
2022-12-04T09:06:47.623Z,74.50
2022-12-04T09:09:13.570Z,74.60
2022-12-04T09:11:39.560Z,74.62
2022-12-04T09:14:05.578Z,74.71
2022-12-04T09:16:31.721Z,74.36
2022-12-04T09:18:57.861Z,74.67
2022-12-04T09:21:24.712Z,74.65
2022-12-04T09:23:51.160Z,75.06
2022-12-04T09:26:29.882Z,74.87
2022-12-04T09:28:57.539Z,74.66
2022-12-04T09:31:24.432Z,74.37
2022-12-04T09:33:51.360Z,74.64
2022-12-04T09:36:17.449Z,74.72
2022-12-04T09:38:46.119Z,74.76
2022-12-04T09:41:36.381Z,74.80
2022-12-04T09:44:24.604Z,74.72
2022-12-04T09:47:00.552Z,74.51
2022-12-04T09:49:56.837Z,74.51
2022-12-04T09:52:44.968Z,74.57
2022-12-04T09:55:52.737Z,74.73
2022-12-04T09:58:22.925Z,74.91
2022-12-04T10:00:51.472Z,74.96
2022-12-04T10:03:20.124Z,74.76
2022-12-04T10:06:06.537Z,74.72
2022-12-04T10:08:40.359Z,74.99
2022-12-04T10:11:16.581Z,74.56
2022-12-04T10:14:02.769Z,74.18
2022-12-04T10:16:43.713Z,74.02
2022-12-04T10:19:49.456Z,74.20
2022-12-04T10:22:24.368Z,74.56
2022-12-04T10:25:02.067Z,74.46
2022-12-04T10:27:38.680Z,74.21
2022-12-04T10:30:21.795Z,74.44
2022-12-04T10:32:57.364Z,74.38
2022-12-04T10:35:26.735Z,74.28
2022-12-04T10:38:22.422Z,74.51
2022-12-04T10:40:55.616Z,74.10
2022-12-04T10:43:40.678Z,74.03
2022-12-04T10:46:20.664Z,74.04
2022-12-04T10:48:50.589Z,74.10
2022-12-04T10:51:19.207Z,73.86
2022-12-04T10:53:45.920Z,73.68
2022-12-04T10:56:14.154Z,74.13
2022-12-04T10:58:41.074Z,74.40
2022-12-04T11:01:12.040Z,74.33
2022-12-04T11:03:44.825Z,74.08
2022-12-04T11:06:14.273Z,74.00
2022-12-04T11:08:49.276Z,74.05
2022-12-04T11:11:23.173Z,73.74
2022-12-04T11:14:02.661Z,74.09
2022-12-04T11:16:37.393Z,74.04
2022-12-04T11:19:18.300Z,74.16
2022-12-04T11:21:44.669Z,74.27
2022-12-04T11:24:28.876Z,74.42
2022-12-04T11:26:57.164Z,74.52
2022-12-04T11:29:31.878Z,74.25
2022-12-04T11:32:02.816Z,74.24
2022-12-04T11:34:40.753Z,74.33
2022-12-04T11:37:20.272Z,74.33
2022-12-04T11:39:47.060Z,74.07
2022-12-04T11:42:13.077Z,74.10
2022-12-04T11:44:48.672Z,74.12
2022-12-04T11:47:19.123Z,74.02
2022-12-04T11:49:57.339Z,74.00
2022-12-04T11:52:54.864Z,74.40
2022-12-04T11:56:02.279Z,74.41
2022-12-04T11:58:31.057Z,74.47
2022-12-04T12:01:07.427Z,74.57
2022-12-04T12:03:44.465Z,74.56
2022-12-04T12:06:25.893Z,74.60
2022-12-04T12:09:13.324Z,74.44
2022-12-04T12:11:55.091Z,74.19
2022-12-04T12:14:21.090Z,74.35
2022-12-04T12:17:09.381Z,74.40
2022-12-04T12:19:39.603Z,74.27
2022-12-04T12:22:10.586Z,74.25
2022-12-04T12:25:13.021Z,74.21
2022-12-04T12:27:54.512Z,74.30
2022-12-04T12:30:22.995Z,74.36
2022-12-04T12:33:08.706Z,74.38
2022-12-04T12:35:43.907Z,74.11
2022-12-04T12:38:19.253Z,74.02
2022-12-04T12:41:27.405Z,74.10
2022-12-04T12:44:02.236Z,73.84
2022-12-04T12:46:40.100Z,74.15
2022-12-04T12:49:06.016Z,74.24
2022-12-04T12:51:56.460Z,74.29
2022-12-04T12:56:20.817Z,74.25
2022-12-04T12:58:54.360Z,74.27
2022-12-04T13:01:20.499Z,74.20
2022-12-04T13:04:11.147Z,74.07
2022-12-04T13:13:07.100Z,74.46
2022-12-04T13:15:43.734Z,74.44
2022-12-04T13:18:23.628Z,74.71
2022-12-04T13:21:02.662Z,74.50
2022-12-04T13:23:59.498Z,74.34
2022-12-04T13:26:31.928Z,74.55
2022-12-04T13:29:40.463Z,74.55
2022-12-04T13:32:37.517Z,74.39
2022-12-04T13:35:23.063Z,74.37
2022-12-04T13:38:16.750Z,74.43
2022-12-04T13:40:48.149Z,74.15
2022-12-04T13:43:37.421Z,74.00
2022-12-04T13:46:07.917Z,74.05
2022-12-04T13:48:40.658Z,74.35
2022-12-04T13:51:39.019Z,74.27
2022-12-04T13:54:11.822Z,74.06
2022-12-04T13:56:40.882Z,74.20
2022-12-04T13:59:32.203Z,74.24
2022-12-04T14:02:23.831Z,74.36
2022-12-04T14:04:58.209Z,74.05
2022-12-04T14:21:06.072Z,73.15
2022-12-04T14:23:42.781Z,72.91
2022-12-04T14:27:09.964Z,73.17
2022-12-04T14:29:53.118Z,72.83
2022-12-04T14:32:27.010Z,73.16
2022-12-04T14:34:55.251Z,73.38
2022-12-04T14:37:31.030Z,73.37
2022-12-04T14:40:00.028Z,73.16
2022-12-04T14:42:38.432Z,72.94
2022-12-04T14:45:20.643Z,72.82
2022-12-04T14:48:26.048Z,73.04
2022-12-04T14:51:21.728Z,73.77
2022-12-04T14:53:51.300Z,73.92
2022-12-04T14:56:57.214Z,73.81
2022-12-04T14:59:29.896Z,74.23
2022-12-04T15:01:56.782Z,73.80
2022-12-04T15:04:29.500Z,73.71
2022-12-04T15:07:00.369Z,73.92
2022-12-04T15:09:47.084Z,74.12
2022-12-04T15:12:34.936Z,74.07
2022-12-04T15:15:25.474Z,73.85
2022-12-04T15:18:13.820Z,73.65
2022-12-04T15:20:49.326Z,74.18
2022-12-04T15:23:27.178Z,74.32
2022-12-04T15:25:57.147Z,73.87
2022-12-04T15:28:49.017Z,74.10
2022-12-04T15:31:30.631Z,73.95
2022-12-04T15:34:02.753Z,74.15
2022-12-04T15:36:46.658Z,74.06
2022-12-04T15:39:19.321Z,73.97
2022-12-04T15:41:46.133Z,73.85
2022-12-04T15:44:24.248Z,73.83
2022-12-04T15:46:54.127Z,73.75
2022-12-04T15:49:26.539Z,73.78
2022-12-04T15:52:05.215Z,73.73
2022-12-04T15:54:32.068Z,73.85
2022-12-04T15:57:04.390Z,73.89
2022-12-04T15:59:32.946Z,73.97
2022-12-04T16:02:21.255Z,73.63
2022-12-04T16:04:47.936Z,73.45
2022-12-04T16:07:27.387Z,73.68
2022-12-04T16:10:04.123Z,73.78
2022-12-04T16:12:32.353Z,74.00
2022-12-04T16:14:59.728Z,74.04
2022-12-04T16:17:36.651Z,73.74
2022-12-04T16:20:05.697Z,73.68
2022-12-04T16:22:32.442Z,73.71
2022-12-04T16:24:59.689Z,73.39
2022-12-04T16:27:26.805Z,73.40
2022-12-04T16:29:53.491Z,73.44
2022-12-04T16:32:25.056Z,73.44
2022-12-04T16:34:51.968Z,73.56
2022-12-04T16:37:21.644Z,73.92
2022-12-04T16:39:48.662Z,73.82
2022-12-04T16:42:17.430Z,74.05
2022-12-04T16:44:44.491Z,73.76
2022-12-04T16:47:12.367Z,73.82
2022-12-04T16:49:39.908Z,73.65
2022-12-04T16:52:08.147Z,73.33
2022-12-04T16:54:35.066Z,73.41
2022-12-04T16:57:01.739Z,73.53
2022-12-04T16:59:28.509Z,73.57
2022-12-04T17:01:55.339Z,73.83
2022-12-04T17:04:22.222Z,73.69
2022-12-04T17:06:48.969Z,73.78
2022-12-04T17:09:16.540Z,73.42
2022-12-04T17:11:44.179Z,73.31
2022-12-04T17:14:11.787Z,73.83
2022-12-04T17:16:45.100Z,74.08
2022-12-04T17:19:12.589Z,73.69
2022-12-04T17:21:40.467Z,73.62
2022-12-04T17:24:07.844Z,73.71
2022-12-04T17:26:34.650Z,73.50
2022-12-04T17:29:01.412Z,73.47
2022-12-04T17:31:28.176Z,73.61
2022-12-04T17:33:57.248Z,73.39
2022-12-04T17:36:26.189Z,73.28
2022-12-04T17:38:57.874Z,73.36
2022-12-04T17:41:26.101Z,73.44
2022-12-04T17:43:52.852Z,73.45
2022-12-04T17:46:24.441Z,73.43
2022-12-04T17:48:51.728Z,73.60
2022-12-04T17:51:21.486Z,73.66
2022-12-04T17:53:48.763Z,73.44
2022-12-04T17:56:21.758Z,73.55
2022-12-04T17:58:50.363Z,73.64
2022-12-04T18:01:21.712Z,73.68
2022-12-04T18:03:53.555Z,73.44
2022-12-04T18:06:24.525Z,73.46
2022-12-04T18:08:52.267Z,73.38
2022-12-04T18:11:23.402Z,73.23
2022-12-04T18:13:57.984Z,73.30
2022-12-04T18:16:26.041Z,73.22
2022-12-04T18:18:54.785Z,73.24
2022-12-04T18:21:21.898Z,73.33
2022-12-04T18:23:48.967Z,73.34
2022-12-04T18:26:21.599Z,73.47
2022-12-04T18:28:49.437Z,73.60
2022-12-04T18:31:18.993Z,73.59
2022-12-04T18:33:46.567Z,73.47
2022-12-04T18:36:23.470Z,73.46
2022-12-04T18:38:58.858Z,73.59
2022-12-04T18:41:26.609Z,73.72
2022-12-04T18:43:53.869Z,73.56
2022-12-04T18:46:21.004Z,73.55
2022-12-04T18:48:49.116Z,73.74
2022-12-04T18:51:21.888Z,74.00
2022-12-04T18:53:49.366Z,74.07
2022-12-04T18:56:16.510Z,73.99
2022-12-04T18:58:44.645Z,74.10
2022-12-04T19:01:13.987Z,73.86
2022-12-04T19:03:41.895Z,73.76
2022-12-04T19:06:08.770Z,73.90
2022-12-04T19:08:39.995Z,74.12
2022-12-04T19:11:15.150Z,74.34
2022-12-04T19:13:42.972Z,74.13
2022-12-04T19:16:14.531Z,74.45
2022-12-04T19:18:42.438Z,74.50
2022-12-04T19:21:09.163Z,74.54
2022-12-04T19:23:35.786Z,74.70
2022-12-04T19:26:02.455Z,74.42
2022-12-04T19:28:29.983Z,74.42
2022-12-04T19:30:56.779Z,74.30
2022-12-04T19:33:24.906Z,74.02
2022-12-04T19:35:58.451Z,73.83
2022-12-04T19:38:25.957Z,73.99
2022-12-04T19:41:22.921Z,73.80
2022-12-04T19:43:51.781Z,74.08
2022-12-04T19:46:21.531Z,74.24
2022-12-04T19:48:50.140Z,74.49
2022-12-04T19:51:20.004Z,74.36
2022-12-04T19:53:48.012Z,74.22
2022-12-04T19:56:18.722Z,74.18
2022-12-04T19:58:46.581Z,74.14
2022-12-04T20:01:19.292Z,74.00
2022-12-04T20:03:46.525Z,74.12
2022-12-04T20:06:16.142Z,74.33
2022-12-04T20:08:43.080Z,74.32
2022-12-04T20:11:12.757Z,74.08
2022-12-04T20:13:40.144Z,74.11
2022-12-04T20:16:09.469Z,73.80
2022-12-04T20:18:37.863Z,74.08
2022-12-04T20:21:10.977Z,74.04
2022-12-04T20:23:39.058Z,73.98
2022-12-04T20:26:07.871Z,73.77
2022-12-04T20:28:34.981Z,73.79
2022-12-04T20:31:10.611Z,73.82
2022-12-04T20:33:37.430Z,73.80
2022-12-04T20:36:05.417Z,73.64
2022-12-04T20:38:32.053Z,73.75
2022-12-04T20:41:03.138Z,73.99
2022-12-04T20:43:29.980Z,73.87
2022-12-04T20:45:56.897Z,73.43
2022-12-04T20:48:23.629Z,73.64
2022-12-04T20:50:50.443Z,73.93
2022-12-04T20:53:17.324Z,73.98
2022-12-04T20:55:53.577Z,74.05
2022-12-04T20:58:20.216Z,73.90
2022-12-04T21:00:46.743Z,73.84
2022-12-04T21:03:13.418Z,73.58
2022-12-04T21:05:40.288Z,73.79
2022-12-04T21:08:08.491Z,73.74
2022-12-04T21:10:35.150Z,73.68
2022-12-04T21:13:20.607Z,73.81
2022-12-04T21:16:03.518Z,74.05
2022-12-04T21:18:30.341Z,73.92
2022-12-04T21:20:57.044Z,73.84
2022-12-04T21:23:23.862Z,73.67
2022-12-04T21:25:50.565Z,73.63
2022-12-04T21:28:17.202Z,73.39
2022-12-04T21:30:43.956Z,73.40
2022-12-04T21:33:10.978Z,73.32
2022-12-04T21:35:40.047Z,73.48
2022-12-04T21:38:06.729Z,73.34
2022-12-04T21:40:39.004Z,73.09
2022-12-04T21:43:09.048Z,73.44
2022-12-04T21:45:35.680Z,73.31
2022-12-04T21:48:02.340Z,73.52
2022-12-04T21:50:28.945Z,73.65
2022-12-04T21:52:55.687Z,73.79
2022-12-04T21:55:22.337Z,73.50
2022-12-04T21:57:49.146Z,73.35
2022-12-04T22:00:16.051Z,73.20
2022-12-04T22:02:42.806Z,73.25
2022-12-04T22:05:09.539Z,73.25
2022-12-04T22:07:36.275Z,73.50
2022-12-04T22:10:08.653Z,73.27
2022-12-04T22:12:52.615Z,73.34
2022-12-04T22:15:19.565Z,73.40
2022-12-04T22:17:46.329Z,73.38
2022-12-04T22:20:13.303Z,73.38
2022-12-04T22:22:40.027Z,73.39
2022-12-04T22:25:06.977Z,73.45
2022-12-04T22:27:33.670Z,73.41
2022-12-04T22:30:00.878Z,73.39
2022-12-04T22:32:27.757Z,73.16
2022-12-04T22:34:54.427Z,73.22
2022-12-04T22:37:21.084Z,73.17
2022-12-04T22:39:47.770Z,73.22
2022-12-04T22:42:14.444Z,73.04
2022-12-04T22:44:41.154Z,73.21
2022-12-04T22:47:07.885Z,73.11
2022-12-04T22:49:34.557Z,73.12
2022-12-04T22:52:01.324Z,72.80
2022-12-04T22:54:27.952Z,72.90
2022-12-04T22:56:54.705Z,73.13
2022-12-04T22:59:21.333Z,72.89
2022-12-04T23:01:47.975Z,72.85
2022-12-04T23:04:14.639Z,72.79
2022-12-04T23:06:41.354Z,73.04
2022-12-04T23:09:13.186Z,72.75
2022-12-04T23:11:40.628Z,72.66
2022-12-04T23:14:09.569Z,72.54
2022-12-04T23:16:38.397Z,72.65
2022-12-04T23:19:07.195Z,72.70
2022-12-04T23:21:34.298Z,72.86
2022-12-04T23:24:01.006Z,73.05
2022-12-04T23:26:32.545Z,73.11
2022-12-04T23:28:59.520Z,72.80
2022-12-04T23:31:26.307Z,73.02
2022-12-04T23:33:53.220Z,73.10
2022-12-04T23:36:20.165Z,72.85
2022-12-04T23:38:47.542Z,73.11
2022-12-04T23:41:26.561Z,72.79
2022-12-04T23:43:54.136Z,73.14
2022-12-04T23:46:24.269Z,73.15
2022-12-04T23:48:50.995Z,72.97
2022-12-04T23:51:19.523Z,72.82
2022-12-04T23:53:48.123Z,72.75
2022-12-04T23:56:23.506Z,72.58
2022-12-04T23:58:52.442Z,72.62
